Time;durP1;ratioP1;P1;durP2;ratioP2;P2;SDS_P1;SDS_P2;PMS_P1;PMS_P2;Temp;Humidity;BMP_temperature;BMP_pressure;BME280_temperature;BME280_humidity;BME280_pressure;Samples;Min_cycle;Max_cycle;Signal;HPM_P1;HPM_P2
2021/06/17 00:00:27;;;;;;;6.05;3.53;;;614.40;1408.00;;;;;;5094040;28;20032;-63
2021/06/17 00:02:54;;;;;;;6.22;3.72;;;614.40;1408.00;;;;;;5093940;28;20031;-65
2021/06/17 00:05:22;;;;;;;12.32;3.58;;;589.70;1408.00;;;;;;5105613;28;20046;-65
2021/06/17 00:07:49;;;;;;;7.00;3.80;;;589.70;1433.60;;;;;;5114190;28;20419;-63
2021/06/17 00:10:25;;;;;;;8.02;3.40;;;589.70;1433.60;;;;;;5113757;28;20043;-62
2021/06/17 00:12:52;;;;;;;11.57;4.00;;;589.70;1408.00;;;;;;5114477;28;20448;-63
2021/06/17 00:15:19;;;;;;;7.20;3.75;;;589.70;1408.00;;;;;;5114140;28;20047;-62
2021/06/17 00:17:46;;;;;;;9.75;3.47;;;589.70;1408.00;;;;;;5114148;28;20020;-63
2021/06/17 00:20:13;;;;;;;7.53;3.85;;;589.70;1433.60;;;;;;5113473;28;20028;-63
2021/06/17 00:22:39;;;;;;;5.60;3.22;;;589.60;1433.60;;;;;;5114650;28;20034;-66
2021/06/17 00:25:06;;;;;;;9.60;4.20;;;589.60;1433.60;;;;;;5113282;28;20031;-62
2021/06/17 00:27:32;;;;;;;11.48;3.25;;;589.60;1433.60;;;;;;5113842;28;20046;-62
2021/06/17 00:29:58;;;;;;;7.28;3.90;;;589.50;1433.60;;;;;;5113959;28;20023;-62
2021/06/17 00:32:24;;;;;;;8.52;3.90;;;589.50;1433.60;;;;;;5113840;28;20496;-62
2021/06/17 00:34:50;;;;;;;6.57;3.28;;;589.40;1433.60;;;;;;5113828;28;20016;-66
2021/06/17 00:37:16;;;;;;;10.60;3.50;;;589.40;1433.60;;;;;;5113749;28;20399;-63
2021/06/17 00:39:42;;;;;;;6.60;3.67;;;589.40;1433.60;;;;;;5113315;28;20027;-64
2021/06/17 00:42:09;;;;;;;7.18;3.45;;;589.40;1459.20;;;;;;5113059;28;20023;-63
2021/06/17 00:44:34;;;;;;;5.50;3.55;;;589.40;1433.60;;;;;;5093587;28;20020;-62
2021/06/17 00:47:00;;;;;;;9.48;3.55;;;589.30;1459.20;;;;;;5111617;28;20035;-64
2021/06/17 00:49:26;;;;;;;5.75;3.55;;;589.30;1433.60;;;;;;5113679;28;20027;-66
2021/06/17 00:51:53;;;;;;;7.15;3.38;;;589.20;1433.60;;;;;;5113616;28;20028;-63
2021/06/17 00:54:31;;;;;;;5.57;3.30;;;589.20;1459.20;;;;;;5113719;28;20015;-63
2021/06/17 00:57:06;;;;;;;6.50;3.40;;;589.20;1433.60;;;;;;5113901;28;20484;-63
2021/06/17 00:59:32;;;;;;;6.93;3.53;;;589.20;1459.20;;;;;;5114322;28;20391;-65
2021/06/17 01:01:59;;;;;;;12.57;3.75;;;589.20;1459.20;;;;;;5113610;28;20024;-64
2021/06/17 01:04:29;;;;;;;6.45;3.15;;;589.20;1459.20;;;;;;5113926;28;20043;-63
2021/06/17 01:06:57;;;;;;;10.93;3.97;;;589.10;1459.20;;;;;;5113584;28;20392;-64
2021/06/17 01:09:50;;;;;;;5.95;3.65;;;589.10;1459.20;;;;;;5113472;28;20030;-64
2021/06/17 01:12:32;;;;;;;8.27;3.58;;;589.10;1459.20;;;;;;5113738;28;20024;-66
2021/06/17 01:15:08;;;;;;;10.30;3.88;;;589.00;1484.80;;;;;;5113097;28;20027;-64
2021/06/17 01:17:39;;;;;;;6.78;3.78;;;589.00;1484.80;;;;;;5112907;28;20044;-65
2021/06/17 01:20:27;;;;;;;4.43;3.28;;;588.90;1484.80;;;;;;5110863;28;20064;-65
2021/06/17 01:23:00;;;;;;;10.05;4.18;;;588.90;1484.80;;;;;;5111909;28;20039;-65
2021/06/17 01:26:01;;;;;;;6.47;3.88;;;588.80;1484.80;;;;;;5110390;28;20030;-66
2021/06/17 01:28:28;;;;;;;10.10;3.60;;;588.80;1484.80;;;;;;5117643;28;20043;-65
2021/06/17 01:31:05;;;;;;;8.02;3.70;;;588.80;1459.20;;;;;;5112683;28;20016;-65
2021/06/17 01:33:35;;;;;;;5.20;3.70;;;588.80;1484.80;;;;;;5112745;28;20035;-64
2021/06/17 01:36:06;;;;;;;10.02;3.90;;;588.80;1484.80;;;;;;5113539;28;20016;-63
2021/06/17 01:38:33;;;;;;;15.80;4.85;;;564.10;1484.80;;;;;;5117195;28;20058;-63
2021/06/17 01:41:01;;;;;;;7.15;3.65;;;564.10;1484.80;;;;;;5117130;28;20025;-63
2021/06/17 01:43:28;;;;;;;7.63;3.78;;;564.00;1510.40;;;;;;5117350;28;20099;-65
2021/06/17 01:45:54;;;;;;;9.27;4.47;;;564.00;1510.40;;;;;;5117022;28;20035;-64
2021/06/17 01:48:21;;;;;;;7.97;3.78;;;564.00;1510.40;;;;;;5116923;28;20031;-63
2021/06/17 01:50:48;;;;;;;7.60;3.63;;;563.90;1484.80;;;;;;5116873;28;20124;-64
2021/06/17 01:53:16;;;;;;;13.10;4.07;;;563.90;1510.40;;;;;;5098592;28;20488;-65
2021/06/17 01:55:43;;;;;;;10.38;3.55;;;564.00;1510.40;;;;;;5116840;28;20035;-65
2021/06/17 01:58:13;;;;;;;8.45;4.50;;;563.90;1510.40;;;;;;5116782;28;20484;-63
2021/06/17 02:00:42;;;;;;;6.88;3.80;;;563.90;1510.40;;;;;;5116882;28;20027;-63
2021/06/17 02:03:08;;;;;;;7.15;4.40;;;563.90;1510.40;;;;;;5116712;28;20026;-63
2021/06/17 02:05:35;;;;;;;7.47;4.18;;;563.80;1510.40;;;;;;5116364;28;20051;-63
2021/06/17 02:08:03;;;;;;;13.82;4.20;;;563.90;1510.40;;;;;;5117083;28;20063;-65
2021/06/17 02:10:30;;;;;;;10.57;4.30;;;563.90;1510.40;;;;;;5116841;28;20022;-63
2021/06/17 02:12:57;;;;;;;10.88;3.83;;;563.90;1510.40;;;;;;5116252;28;20031;-66
2021/06/17 02:15:28;;;;;;;8.80;3.55;;;563.90;1510.40;;;;;;5116482;28;20103;-63
2021/06/17 02:17:56;;;;;;;7.90;4.00;;;563.90;1510.40;;;;;;5116651;28;20035;-65
2021/06/17 02:20:22;;;;;;;10.43;4.55;;;563.80;1510.40;;;;;;5116448;28;20024;-66
2021/06/17 02:22:51;;;;;;;7.40;4.07;;;563.80;1510.40;;;;;;5116312;28;20023;-63
2021/06/17 02:25:19;;;;;;;9.20;4.13;;;563.80;1510.40;;;;;;5097957;28;20023;-64
2021/06/17 02:27:52;;;;;;;12.23;3.80;;;563.80;1510.40;;;;;;5116267;28;20039;-66
2021/06/17 02:30:18;;;;;;;6.22;3.78;;;563.70;1510.40;;;;;;5116207;28;20422;-64
2021/06/17 02:32:50;;;;;;;8.63;3.65;;;563.70;1510.40;;;;;;5116348;28;20027;-63
2021/06/17 02:35:25;;;;;;;9.75;4.30;;;563.70;1510.40;;;;;;5116167;28;20492;-66
2021/06/17 02:37:54;;;;;;;7.50;3.60;;;563.70;1510.40;;;;;;5116323;28;20024;-63
2021/06/17 02:40:23;;;;;;;4.82;3.38;;;563.60;1536.00;;;;;;5116055;28;20426;-63
2021/06/17 02:42:52;;;;;;;9.35;3.63;;;563.60;1510.40;;;;;;5116165;28;20024;-66
2021/06/17 02:45:18;;;;;;;8.30;3.90;;;563.60;1536.00;;;;;;5116127;28;20027;-64
2021/06/17 02:47:44;;;;;;;8.20;3.95;;;563.60;1536.00;;;;;;5115257;28;20040;-63
2021/06/17 02:50:10;;;;;;;4.45;3.38;;;563.60;1536.00;;;;;;5115554;28;20562;-63
2021/06/17 02:52:40;;;;;;;9.15;4.32;;;563.50;1536.00;;;;;;5115634;28;20031;-64
2021/06/17 02:55:07;;;;;;;9.27;4.00;;;563.50;1536.00;;;;;;5115664;28;20497;-66
2021/06/17 02:58:04;;;;;;;6.47;3.22;;;563.50;1536.00;;;;;;5115860;28;20028;-62
2021/06/17 03:00:35;;;;;;;6.47;4.25;;;563.50;1536.00;;;;;;5115603;28;20043;-66
2021/06/17 03:03:02;;;;;;;7.10;3.58;;;563.40;1536.00;;;;;;5115602;28;20055;-62
2021/06/17 03:05:55;;;;;;;12.27;4.30;;;563.30;1561.60;;;;;;5115387;28;20039;-62
2021/06/17 03:08:34;;;;;;;11.13;5.07;;;563.20;1587.20;;;;;;5115331;28;20046;-62
2021/06/17 03:11:04;;;;;;;8.02;4.35;;;563.20;1587.20;;;;;;5097071;28;20053;-62
2021/06/17 03:13:33;;;;;;;10.70;4.85;;;563.20;1587.20;;;;;;5115324;28;20030;-62
2021/06/17 03:16:01;;;;;;;16.23;5.28;;;538.50;1587.20;;;;;;5115186;28;20023;-66
2021/06/17 03:18:28;;;;;;;12.02;4.93;;;538.40;1587.20;;;;;;5115210;28;20034;-62
2021/06/17 03:20:58;;;;;;;9.48;4.78;;;538.40;1587.20;;;;;;5115420;28;20468;-62
2021/06/17 03:23:27;;;;;;;9.23;5.28;;;538.40;1587.20;;;;;;5115101;28;20133;-62
2021/06/17 03:26:01;;;;;;;15.32;5.22;;;538.40;1561.60;;;;;;5115045;28;20484;-62
2021/06/17 03:28:29;;;;;;;10.93;5.38;;;538.50;1561.60;;;;;;5115278;28;20081;-62
2021/06/17 03:30:56;;;;;;;12.15;4.68;;;538.40;1587.20;;;;;;5115135;28;20027;-62
2021/06/17 03:33:28;;;;;;;12.25;5.47;;;538.40;1587.20;;;;;;5115212;28;20031;-62
2021/06/17 03:35:55;;;;;;;10.32;5.00;;;538.30;1587.20;;;;;;5115155;28;20027;-61
2021/06/17 03:38:22;;;;;;;12.07;5.68;;;538.30;1587.20;;;;;;5115011;28;20020;-66
2021/06/17 03:40:51;;;;;;;11.63;5.25;;;538.40;1587.20;;;;;;5115087;28;20092;-62
2021/06/17 03:43:20;;;;;;;15.65;5.72;;;538.40;1587.20;;;;;;5114750;28;20024;-62
2021/06/17 03:45:48;;;;;;;17.25;5.93;;;538.40;1587.20;;;;;;5114688;28;20020;-62
2021/06/17 03:48:15;;;;;;;14.02;5.32;;;538.30;1587.20;;;;;;5114500;28;20032;-62
2021/06/17 03:50:46;;;;;;;14.55;5.18;;;538.40;1587.20;;;;;;5114601;28;20051;-65
2021/06/17 03:53:14;;;;;;;11.73;6.00;;;538.30;1587.20;;;;;;5114462;28;20028;-66
2021/06/17 03:55:42;;;;;;;13.15;5.20;;;538.40;1612.80;;;;;;5114492;28;20012;-63
2021/06/17 03:58:08;;;;;;;15.25;4.50;;;538.40;1587.20;;;;;;5114394;28;20020;-62
2021/06/17 04:00:35;;;;;;;9.75;4.75;;;538.40;1587.20;;;;;;5113488;28;20019;-62
2021/06/17 04:03:07;;;;;;;13.82;4.70;;;538.50;1561.60;;;;;;5114399;28;20019;-62
2021/06/17 04:05:36;;;;;;;10.98;4.95;;;538.50;1561.60;;;;;;5114310;28;20067;-62
2021/06/17 04:08:02;;;;;;;7.45;4.10;;;538.50;1561.60;;;;;;5095959;28;20032;-65
2021/06/17 04:10:29;;;;;;;14.02;4.75;;;563.20;1587.20;;;;;;5095978;28;20024;-66
2021/06/17 04:12:57;;;;;;;10.48;3.83;;;563.20;1587.20;;;;;;5114478;28;20069;-65
2021/06/17 04:15:25;;;;;;;8.77;4.13;;;563.20;1587.20;;;;;;5114198;28;20423;-62
2021/06/17 04:17:56;;;;;;;7.82;4.55;;;563.30;1587.20;;;;;;5114193;28;20608;-62
2021/06/17 04:20:29;;;;;;;8.57;4.88;;;563.40;1561.60;;;;;;5114260;28;20023;-65
2021/06/17 04:22:57;;;;;;;8.98;4.55;;;563.50;1561.60;;;;;;5095848;28;20584;-65
2021/06/17 04:25:24;;;;;;;4.70;3.75;;;563.50;1561.60;;;;;;5114171;28;20062;-63
2021/06/17 04:27:54;;;;;;;5.47;3.85;;;563.50;1561.60;;;;;;5095744;28;20032;-65
2021/06/17 04:30:22;;;;;;;6.57;3.42;;;563.60;1561.60;;;;;;5113932;28;20032;-62
2021/06/17 04:32:50;;;;;;;9.27;3.92;;;563.60;1536.00;;;;;;5114547;28;20464;-65
2021/06/17 04:35:19;;;;;;;7.88;3.88;;;563.70;1536.00;;;;;;5113953;28;20016;-63
2021/06/17 04:37:46;;;;;;;8.57;4.10;;;563.70;1536.00;;;;;;5114192;28;20022;-64
2021/06/17 04:40:14;;;;;;;7.40;3.40;;;563.80;1536.00;;;;;;5114033;28;20027;-63
2021/06/17 04:42:40;;;;;;;10.90;3.88;;;563.80;1536.00;;;;;;5113859;28;20019;-65
2021/06/17 04:45:07;;;;;;;10.55;3.72;;;563.90;1536.00;;;;;;5114162;28;20468;-65
2021/06/17 04:47:37;;;;;;;9.18;3.78;;;563.90;1536.00;;;;;;5113717;28;20035;-63
2021/06/17 04:50:07;;;;;;;6.95;3.08;;;564.00;1510.40;;;;;;5113866;28;20076;-62
2021/06/17 04:52:56;;;;;;;12.40;3.45;;;564.00;1510.40;;;;;;5113019;28;20046;-63
2021/06/17 04:55:22;;;;;;;10.18;3.60;;;564.10;1510.40;;;;;;5100465;28;20040;-64
2021/06/17 04:57:48;;;;;;;13.75;3.75;;;564.00;1536.00;;;;;;5113734;28;20027;-65
2021/06/17 05:00:14;;;;;;;6.90;3.20;;;564.10;1536.00;;;;;;5113761;28;20464;-64
2021/06/17 05:02:40;;;;;;;6.28;3.65;;;564.00;1536.00;;;;;;5113679;28;20035;-66
2021/06/17 05:05:08;;;;;;;8.10;3.38;;;564.10;1536.00;;;;;;5113468;28;20044;-63
2021/06/17 05:12:49;;;;;;;7.47;3.17;;;588.80;1536.00;;;;;;5117388;28;20034;-63
2021/06/17 05:15:15;;;;;;;8.68;3.25;;;588.80;1536.00;;;;;;5117774;28;20019;-63
2021/06/17 05:17:41;;;;;;;10.35;3.65;;;588.80;1536.00;;;;;;5117537;28;20068;-66
2021/06/17 05:20:07;;;;;;;10.65;3.55;;;588.90;1536.00;;;;;;5117510;28;20020;-65
2021/06/17 05:22:34;;;;;;;6.05;3.33;;;588.90;1536.00;;;;;;5117474;28;20033;-62
2021/06/17 05:25:01;;;;;;;8.70;3.47;;;588.90;1536.00;;;;;;5117601;28;20157;-65
2021/06/17 05:27:26;;;;;;;7.07;3.33;;;588.90;1536.00;;;;;;5117282;28;20028;-65
2021/06/17 05:29:52;;;;;;;6.90;3.50;;;589.00;1561.60;;;;;;5117319;28;20102;-63
2021/06/17 05:32:19;;;;;;;9.82;4.68;;;589.00;1561.60;;;;;;5117401;28;20023;-65
2021/06/17 05:34:45;;;;;;;7.13;3.63;;;589.00;1561.60;;;;;;5117123;28;20062;-62
2021/06/17 05:37:11;;;;;;;8.10;3.83;;;589.00;1536.00;;;;;;5117131;28;20024;-62
2021/06/17 05:39:37;;;;;;;10.48;3.75;;;589.10;1561.60;;;;;;5117356;28;20420;-63
2021/06/17 05:42:04;;;;;;;12.40;3.80;;;589.10;1561.60;;;;;;5117103;28;20483;-62
2021/06/17 05:44:30;;;;;;;6.80;4.10;;;589.10;1536.00;;;;;;5117241;28;20380;-62
2021/06/17 05:46:55;;;;;;;11.77;4.00;;;589.20;1561.60;;;;;;5116922;28;20042;-63
2021/06/17 05:49:24;;;;;;;16.75;3.92;;;589.20;1536.00;;;;;;5117039;28;20106;-62
2021/06/17 05:51:51;;;;;;;10.38;4.43;;;589.20;1536.00;;;;;;5117068;28;20020;-62
2021/06/17 05:54:17;;;;;;;11.00;3.90;;;589.30;1536.00;;;;;;5117053;28;20016;-62
2021/06/17 05:56:43;;;;;;;11.00;4.22;;;589.30;1536.00;;;;;;5117100;28;20024;-63
2021/06/17 05:59:09;;;;;;;6.40;3.53;;;589.40;1536.00;;;;;;5098487;28;20478;-62
2021/06/17 06:01:35;;;;;;;10.25;4.30;;;589.40;1561.60;;;;;;5116771;28;20026;-62
2021/06/17 06:04:01;;;;;;;9.75;4.18;;;589.50;1561.60;;;;;;5116732;28;20031;-64
2021/06/17 06:06:27;;;;;;;6.85;3.83;;;589.50;1561.60;;;;;;5116954;28;20027;-62
2021/06/17 06:08:53;;;;;;;8.52;4.10;;;589.60;1536.00;;;;;;5116574;28;20119;-62
2021/06/17 06:11:19;;;;;;;13.25;4.85;;;589.60;1561.60;;;;;;5116766;28;20099;-65
2021/06/17 06:13:46;;;;;;;10.55;4.20;;;589.70;1536.00;;;;;;5116436;28;20028;-63
2021/06/17 06:16:12;;;;;;;9.40;3.83;;;589.70;1561.60;;;;;;5098137;28;20024;-66
2021/06/17 06:18:38;;;;;;;6.70;4.15;;;614.40;1536.00;;;;;;5116368;28;20501;-65
2021/06/17 06:21:05;;;;;;;7.60;3.95;;;614.50;1561.60;;;;;;5116357;28;20034;-62
2021/06/17 06:23:31;;;;;;;8.25;3.78;;;614.60;1536.00;;;;;;5115829;28;20023;-62
2021/06/17 06:25:58;;;;;;;10.00;3.67;;;614.70;1536.00;;;;;;5116233;28;20030;-63
2021/06/17 06:28:26;;;;;;;14.48;3.97;;;614.80;1510.40;;;;;;5097881;28;20039;-63
2021/06/17 06:30:52;;;;;;;10.35;4.28;;;614.90;1510.40;;;;;;5115808;28;20016;-62
2021/06/17 06:33:20;;;;;;;6.05;3.45;;;614.90;1484.80;;;;;;5115991;28;20050;-62
2021/06/17 06:35:47;;;;;;;9.20;3.60;;;615.10;1510.40;;;;;;5115986;28;20022;-62
2021/06/17 06:38:13;;;;;;;12.02;4.20;;;615.20;1510.40;;;;;;5115894;28;20050;-63
2021/06/17 06:40:40;;;;;;;12.40;4.18;;;615.30;1484.80;;;;;;5115994;28;20380;-62
2021/06/17 06:43:07;;;;;;;7.70;4.45;;;640.00;1459.20;;;;;;5115902;28;20030;-62
2021/06/17 06:45:34;;;;;;;13.40;4.40;;;640.20;1484.80;;;;;;5115884;28;20050;-66
2021/06/17 06:48:01;;;;;;;13.05;4.25;;;640.20;1459.20;;;;;;5115529;28;20043;-67
2021/06/17 06:50:27;;;;;;;9.32;3.80;;;640.30;1433.60;;;;;;5115683;28;20068;-63
2021/06/17 06:52:53;;;;;;;7.40;3.72;;;640.40;1408.00;;;;;;5115562;28;20111;-65
2021/06/17 06:55:19;;;;;;;5.63;3.08;;;640.50;1382.40;;;;;;5115652;28;20468;-63
2021/06/17 06:57:46;;;;;;;9.38;3.75;;;640.60;1382.40;;;;;;5115511;28;20031;-66
2021/06/17 07:00:14;;;;;;;8.75;3.50;;;640.70;1382.40;;;;;;5115488;28;20028;-66
2021/06/17 07:02:41;;;;;;;8.25;3.47;;;640.70;1382.40;;;;;;5115432;28;20095;-64
2021/06/17 07:05:08;;;;;;;6.10;2.53;;;640.90;1356.80;;;;;;5115328;28;20035;-63
2021/06/17 07:07:34;;;;;;;10.90;3.13;;;665.60;1356.80;;;;;;5115212;28;20032;-63
2021/06/17 07:10:00;;;;;;;4.68;2.55;;;665.60;1356.80;;;;;;5115330;28;20020;-66
2021/06/17 07:12:26;;;;;;;11.70;3.00;;;665.70;1356.80;;;;;;5115190;28;20023;-67
2021/06/17 07:14:52;;;;;;;10.02;3.13;;;666.00;1331.20;;;;;;5096878;28;20028;-67
2021/06/17 07:17:17;;;;;;;13.23;3.53;;;666.00;1305.60;;;;;;5115163;28;20066;-67
2021/06/17 07:19:43;;;;;;;8.85;3.03;;;666.10;1356.80;;;;;;5115362;28;20058;-64
2021/06/17 07:22:10;;;;;;;10.02;2.85;;;666.10;1331.20;;;;;;5114907;28;20027;-63
2021/06/17 07:24:36;;;;;;;13.25;3.08;;;666.10;1331.20;;;;;;5115027;28;20098;-65
2021/06/17 07:27:03;;;;;;;9.32;2.72;;;666.10;1356.80;;;;;;5114657;28;20122;-67
2021/06/17 07:29:29;;;;;;;11.02;3.05;;;666.10;1331.20;;;;;;5114793;28;20032;-66
2021/06/17 07:31:56;;;;;;;8.45;2.70;;;666.10;1356.80;;;;;;5114935;28;20027;-66
2021/06/17 07:34:22;;;;;;;6.78;2.65;;;666.10;1356.80;;;;;;5114836;28;20028;-65
2021/06/17 07:36:48;;;;;;;8.68;2.78;;;666.30;1331.20;;;;;;5114801;28;20020;-65
2021/06/17 07:39:15;;;;;;;4.00;2.30;;;666.30;1356.80;;;;;;5114655;28;20038;-63
2021/06/17 07:41:41;;;;;;;5.60;2.58;;;666.40;1331.20;;;;;;5114662;28;20020;-64
2021/06/17 07:44:09;;;;;;;8.35;4.82;;;666.50;1356.80;;;;;;5114753;28;20023;-66
2021/06/17 07:46:36;;;;;;;7.43;3.95;;;666.50;1356.80;;;;;;5114476;28;20476;-63
2021/06/17 07:49:03;;;;;;;7.03;2.80;;;666.50;1331.20;;;;;;5114531;28;20027;-64
2021/06/17 07:51:30;;;;;;;6.07;3.10;;;691.30;1331.20;;;;;;5096076;28;20024;-66
2021/06/17 07:54:00;;;;;;;7.93;2.28;;;691.30;1331.20;;;;;;5114452;28;20024;-64
2021/06/17 07:56:31;;;;;;;3.60;2.20;;;691.40;1280.00;;;;;;5114439;28;20410;-63
2021/06/17 07:58:58;;;;;;;5.55;2.55;;;691.50;1280.00;;;;;;5114354;28;20084;-66
2021/06/17 08:01:25;;;;;;;11.45;2.40;;;691.70;1254.40;;;;;;5114288;28;20024;-64
2021/06/17 08:03:52;;;;;;;6.43;2.03;;;691.60;1254.40;;;;;;5114448;28;20028;-66
2021/06/17 08:06:18;;;;;;;6.30;2.20;;;691.70;1280.00;;;;;;5095710;28;20089;-64
2021/06/17 08:08:44;;;;;;;6.60;2.45;;;691.80;1228.80;;;;;;5114130;28;20464;-63
2021/06/17 08:11:12;;;;;;;8.63;2.50;;;691.70;1203.20;;;;;;5114123;28;20458;-66
2021/06/17 08:13:38;;;;;;;9.93;2.65;;;691.70;1203.20;;;;;;5114132;28;20434;-64
2021/06/17 08:16:05;;;;;;;5.07;2.42;;;691.80;1152.00;;;;;;5114495;28;20576;-66
2021/06/17 08:18:31;;;;;;;6.20;2.25;;;691.90;1203.20;;;;;;5114195;28;20028;-66
2021/06/17 08:21:00;;;;;;;10.27;1.90;;;691.90;1126.40;;;;;;5113960;28;20091;-64
2021/06/17 08:23:26;;;;;;;7.20;1.67;;;692.00;1177.60;;;;;;5114069;28;20384;-66
2021/06/17 08:25:52;;;;;;;5.10;1.88;;;692.00;1100.80;;;;;;5114024;28;20534;-66
2021/06/17 08:28:18;;;;;;;6.53;2.50;;;692.10;1152.00;;;;;;5113870;28;20142;-66
2021/06/17 08:30:44;;;;;;;7.68;2.50;;;716.80;1177.60;;;;;;5095716;28;20020;-65
2021/06/17 08:33:10;;;;;;;5.18;1.80;;;716.90;1177.60;;;;;;5114173;28;20384;-66
2021/06/17 08:35:36;;;;;;;4.43;1.63;;;716.90;1152.00;;;;;;5113962;28;20539;-64
2021/06/17 08:38:02;;;;;;;4.60;1.58;;;716.90;1177.60;;;;;;5113838;28;20111;-64
2021/06/17 08:40:34;;;;;;;4.93;1.63;;;717.00;1152.00;;;;;;5113849;28;20380;-64
2021/06/17 08:43:00;;;;;;;5.23;2.10;;;717.00;1126.40;;;;;;5113961;28;20026;-64
2021/06/17 08:45:27;;;;;;;7.85;2.00;;;717.00;1075.20;;;;;;5113717;28;20132;-67
2021/06/17 08:47:53;;;;;;;5.03;1.73;;;717.10;1126.40;;;;;;5117513;28;20403;-65
2021/06/17 08:50:19;;;;;;;4.28;1.95;;;717.00;1049.60;;;;;;5113262;28;20028;-67
2021/06/17 08:52:46;;;;;;;2.95;1.90;;;717.10;1100.80;;;;;;5116176;28;20426;-67
2021/06/17 08:55:17;;;;;;;4.72;1.63;;;717.00;1100.80;;;;;;5116554;28;20216;-66
2021/06/17 08:57:44;;;;;;;3.58;1.50;;;717.20;1100.80;;;;;;5116371;28;20019;-67
2021/06/17 09:00:35;;;;;;;6.75;2.15;;;717.20;1075.20;;;;;;5116307;28;20027;-67
2021/06/17 09:03:05;;;;;;;6.00;2.00;;;717.30;1100.80;;;;;;5116161;28;20023;-72
2021/06/17 09:05:34;;;;;;;10.82;3.00;;;717.40;1126.40;;;;;;5116339;28;20060;-66
2021/06/17 09:08:00;;;;;;;11.75;3.58;;;717.40;1100.80;;;;;;5115520;28;20560;-59
2021/06/17 09:10:27;;;;;;;5.78;2.33;;;717.40;1126.40;;;;;;5116652;28;20047;-62
2021/06/17 09:12:56;;;;;;;9.43;2.00;;;717.30;1100.80;;;;;;5116000;28;20110;-58
2021/06/17 09:15:31;;;;;;;4.28;1.60;;;717.30;1075.20;;;;;;5116252;28;20028;-73
2021/06/17 09:18:17;;;;;;;5.07;2.00;;;717.30;1126.40;;;;;;5115912;28;20067;-62
2021/06/17 09:21:01;;;;;;;7.50;1.90;;;717.30;1126.40;;;;;;5116109;28;20024;-65
2021/06/17 09:23:37;;;;;;;4.22;1.80;;;717.40;1024.00;;;;;;5115998;28;20019;-63
2021/06/17 09:26:17;;;;;;;11.63;1.73;;;717.50;998.40;;;;;;5115962;28;20034;-59
2021/06/17 09:29:03;;;;;;;6.28;1.85;;;717.50;1049.60;;;;;;5116162;28;20046;-63
2021/06/17 09:31:34;;;;;;;5.70;1.80;;;717.60;1024.00;;;;;;5115748;28;20375;-59
2021/06/17 09:34:02;;;;;;;6.95;1.95;;;717.40;1075.20;;;;;;5116771;28;20019;-55
2021/06/17 09:36:33;;;;;;;4.90;2.05;;;717.50;1075.20;;;;;;5117269;28;20051;-55
2021/06/17 09:39:03;;;;;;;5.45;2.15;;;717.60;1049.60;;;;;;5103627;28;20030;-54
2021/06/17 09:41:38;;;;;;;5.05;1.80;;;717.60;1049.60;;;;;;5113979;28;20094;-55
2021/06/17 09:44:06;;;;;;;6.32;2.10;;;717.60;1049.60;;;;;;5098660;28;20464;-56
2021/06/17 09:46:32;;;;;;;8.07;3.03;;;717.60;1049.60;;;;;;5116740;28;20035;-73
2021/06/17 09:49:07;;;;;;;6.97;2.35;;;717.70;1100.80;;;;;;5116912;28;20468;-72
2021/06/17 09:51:41;;;;;;;6.50;2.00;;;742.40;1100.80;;;;;;5113868;28;20031;-60
2021/06/17 09:54:13;;;;;;;7.28;2.30;;;742.40;1100.80;;;;;;5113253;28;20035;-66
2021/06/17 09:56:40;;;;;;;7.57;2.15;;;742.50;1075.20;;;;;;5114597;28;20031;-73
2021/06/17 09:59:10;;;;;;;7.45;2.20;;;742.40;1100.80;;;;;;5114808;28;20069;-70
2021/06/17 10:01:42;;;;;;;5.07;1.80;;;742.40;1100.80;;;;;;5096563;28;20510;-65
2021/06/17 10:04:08;;;;;;;8.48;1.85;;;742.40;1075.20;;;;;;5114990;28;20047;-72
2021/06/17 10:06:35;;;;;;;6.10;2.10;;;742.40;1100.80;;;;;;5114543;28;20082;-60
2021/06/17 10:09:10;;;;;;;6.50;2.28;;;717.60;1075.20;;;;;;5115271;28;20525;-70
2021/06/17 10:11:37;;;;;;;5.10;2.00;;;717.60;1075.20;;;;;;5114719;28;20034;-60
2021/06/17 10:14:04;;;;;;;9.02;2.55;;;717.60;1100.80;;;;;;5115036;28;20432;-62
2021/06/17 10:16:32;;;;;;;8.98;1.98;;;717.60;1100.80;;;;;;5114755;28;20064;-71
2021/06/17 10:18:59;;;;;;;5.82;2.30;;;717.60;1100.80;;;;;;5114993;28;20415;-62
2021/06/17 10:21:25;;;;;;;4.07;1.95;;;717.60;1100.80;;;;;;5114303;28;20020;-60
2021/06/17 10:23:51;;;;;;;3.53;2.30;;;717.70;1075.20;;;;;;5114783;28;20028;-60
2021/06/17 10:26:23;;;;;;;5.10;1.80;;;717.60;1075.20;;;;;;5114711;28;20027;-63
2021/06/17 10:28:52;;;;;;;7.53;2.20;;;717.70;1100.80;;;;;;5114781;28;20032;-59
2021/06/17 10:31:36;;;;;;;7.07;2.30;;;742.40;1126.40;;;;;;5114649;28;20640;-61
2021/06/17 10:34:24;;;;;;;6.15;2.38;;;742.40;1126.40;;;;;;5114285;28;20031;-61
2021/06/17 10:37:17;;;;;;;6.05;2.50;;;742.40;1100.80;;;;;;5114884;28;20361;-66
2021/06/17 10:39:45;;;;;;;7.35;2.10;;;742.40;1126.40;;;;;;5114629;28;20028;-55
2021/06/17 10:42:29;;;;;;;7.35;3.22;;;742.50;1100.80;;;;;;5115578;28;20020;-64
2021/06/17 10:44:57;;;;;;;6.57;2.28;;;742.50;1126.40;;;;;;5097600;28;20024;-55
2021/06/17 10:50:10;;;;;;;5.88;1.80;;;742.50;1075.20;;;;;;5116017;28;20034;-72
2021/06/17 10:52:41;;;;;;;4.55;1.90;;;742.50;1100.80;;;;;;5115432;28;20495;-72
2021/06/17 10:55:12;;;;;;;5.22;2.00;;;742.50;1100.80;;;;;;5115789;28;20030;-55
2021/06/17 11:00:25;;;;;;;19.83;3.53;;;742.50;1049.60;;;;;;5115781;28;20030;-72
2021/06/17 11:03:06;;;;;;;4.15;2.38;;;742.60;1049.60;;;;;;5115655;28;20352;-55
2021/06/17 11:05:35;;;;;;;5.78;2.20;;;742.60;1024.00;;;;;;5096953;28;20051;-72
2021/06/17 11:08:16;;;;;;;6.32;3.38;;;742.60;1049.60;;;;;;5114884;28;20043;-56
2021/06/17 11:10:48;;;;;;;7.80;2.63;;;742.70;1075.20;;;;;;5114665;28;20020;-55
2021/06/17 11:13:30;;;;;;;5.82;2.40;;;742.60;1075.20;;;;;;5115242;28;20414;-55
2021/06/17 11:16:13;;;;;;;5.00;2.17;;;742.70;1049.60;;;;;;5115131;28;20028;-55
2021/06/17 11:18:42;;;;;;;7.93;3.10;;;742.80;1049.60;;;;;;5115363;28;20040;-55
2021/06/17 11:21:23;;;;;;;4.15;2.00;;;742.80;1049.60;;;;;;5114839;28;20035;-55
2021/06/17 11:24:22;;;;;;;5.00;2.42;;;742.90;1049.60;;;;;;5114989;28;20023;-72
2021/06/17 11:26:50;;;;;;;5.75;2.72;;;742.90;1075.20;;;;;;5100989;28;20069;-72
2021/06/17 11:29:19;;;;;;;6.50;2.17;;;742.90;1075.20;;;;;;5115074;28;20034;-69
2021/06/17 11:31:53;;;;;;;5.63;2.30;;;742.90;1049.60;;;;;;5114733;28;20102;-72
2021/06/17 11:34:38;;;;;;;6.25;1.80;;;742.90;1024.00;;;;;;5114929;28;20072;-72
2021/06/17 11:37:14;;;;;;;6.65;1.88;;;742.90;1049.60;;;;;;5114885;28;20032;-55
2021/06/17 11:39:40;;;;;;;2.65;1.88;;;743.00;1049.60;;;;;;5114822;28;20384;-72
2021/06/17 11:42:15;;;;;;;4.53;1.98;;;743.10;1049.60;;;;;;5114507;28;20027;-64
2021/06/17 11:44:41;;;;;;;5.05;2.15;;;743.00;1049.60;;;;;;5095861;28;20031;-58
2021/06/17 11:47:09;;;;;;;4.55;2.22;;;743.00;1049.60;;;;;;5096030;28;20027;-72
2021/06/17 11:49:37;;;;;;;16.65;2.60;;;743.00;1049.60;;;;;;5108210;28;20027;-58
2021/06/17 11:52:11;;;;;;;7.95;2.45;;;742.90;1024.00;;;;;;5111803;28;20023;-72
2021/06/17 11:54:38;;;;;;;9.75;2.35;;;742.90;1049.60;;;;;;5112057;28;20020;-60
2021/06/17 11:57:04;;;;;;;5.38;2.20;;;742.80;1024.00;;;;;;5112459;28;20300;-56
2021/06/17 11:59:31;;;;;;;6.32;2.55;;;742.90;998.40;;;;;;5113047;28;20372;-66
2021/06/17 12:02:09;;;;;;;5.18;2.50;;;742.90;1075.20;;;;;;5112070;28;20380;-56
2021/06/17 12:04:58;;;;;;;10.75;2.65;;;742.80;1075.20;;;;;;5110319;28;20085;-62
2021/06/17 12:07:41;;;;;;;4.38;2.00;;;742.90;1049.60;;;;;;5112686;28;20092;-57
2021/06/17 12:10:21;;;;;;;7.05;2.22;;;742.90;1075.20;;;;;;5111899;28;20016;-67
2021/06/17 12:12:52;;;;;;;4.55;2.25;;;743.00;1075.20;;;;;;5095825;28;20019;-57
2021/06/17 12:15:23;;;;;;;7.50;2.30;;;743.00;1075.20;;;;;;5112099;28;20043;-56
2021/06/17 12:17:52;;;;;;;3.88;2.17;;;743.00;1049.60;;;;;;5121874;27;20106;-67
2021/06/17 12:20:25;;;;;;;5.20;2.20;;;743.00;1024.00;;;;;;5111309;28;20031;-59
2021/06/17 12:22:58;;;;;;;4.43;1.92;;;743.00;998.40;;;;;;5111973;28;20027;-58
2021/06/17 12:25:46;;;;;;;5.28;1.88;;;743.10;1024.00;;;;;;5112367;28;20020;-72
2021/06/17 12:28:17;;;;;;;9.75;2.15;;;743.20;1024.00;;;;;;5107581;28;20058;-68
2021/06/17 12:30:48;;;;;;;6.07;1.63;;;743.20;972.80;;;;;;5109152;28;20016;-63
2021/06/17 12:33:21;;;;;;;12.77;2.38;;;743.30;972.80;;;;;;5111132;28;20230;-69
2021/06/17 12:36:01;;;;;;;6.72;2.25;;;768.00;972.80;;;;;;5108405;28;20127;-65
2021/06/17 12:38:30;;;;;;;7.70;2.40;;;743.30;972.80;;;;;;5111449;28;20031;-62